KLDJKHZL

Guest
Details From KLDJ - LINDEN
To KHZL - HAZLETON MUNI
Flight Number -
Tags decoded
Created
Modified
Stats Distance 83 nm / 153 km
Max Altitude 0 ft / 0 m
Waypoints 2
Social Downloads 6
Likes 0
Share VATSIM

Download

Looking for another format? Having issues loading an existing format? Contact us
Advertisement - Login to hide

Notes

Requested: KLDJ KHZL

Route

KLDJ KHZL

ID Type Via Altitude Latitude Longitude Leg Dist Tot Dist Heading (true) Name
O KLDJ APT - 0 ft / 0 m 40.61745˚ -74.24459˚ - 0 nm - LINDEN
O KHZL APT - 0 ft / 0 m 40.98678˚ -75.99489˚ 82 nm 82 nm 286° / 285° HAZLETON MUNI

Altitude Profile

Advertisement - Login to hide

KLDJ

Details ICAO KLDJ (LDJ)
Name LINDEN
Region United States
Timezone America/New_York (UTC-5.0)
Stats Elevation 23 ft / 7 m (AMSL)
Location 40.617449° -74.244595°
Runways 1
Magnetic Variation 12.754° W

METAR

KLDJ 131735Z AUTO 30023G32KT 10SM CLR M01/M15 A2957 RMK AO2 T10061153

Decode

TAF

Not found

Departure Runways

ID Width Length Bearing (true) Bearing (mag) Surface Threshold Offset Overrun Length
09 98 ft / 30 m 4,131 ft / 1,259 m 75.60° 88.35° Asphalt 459 ft / 140 m 200 ft / 61 m
27 98 ft / 30 m 4,131 ft / 1,259 m 255.61° 268.36° Asphalt 545 ft / 166 m 200 ft / 61 m

KHZL

Details ICAO KHZL (HZL)
Name HAZLETON MUNI
Region United States
Timezone America/New_York (UTC-5.0)
Stats Elevation 1,603 ft / 489 m (AMSL)
Location 40.986782° -75.994893°
Runways 1
Magnetic Variation 11.898° W

METAR

KHZL 131735Z AUTO 28014G21KT 240V330 10SM OVC034 M04/M13 A2958 RMK AO2

Decode

TAF

Not found

Destination Runways

ID Width Length Bearing (true) Bearing (mag) Surface Threshold Offset Overrun Length
10 100 ft / 30 m 4,886 ft / 1,489 m 94.12° 106.02° Asphalt 0 ft / 0 m 0 ft / 0 m
28 100 ft / 30 m 4,886 ft / 1,489 m 274.13° 286.03° Asphalt 0 ft / 0 m 0 ft / 0 m

Approach Navaids

Runway Type Ident Frequency Range Bearing (true) Bearing (mag) Slope Elevation
28 Localiser IHZL 110.50 MHz 18 nm / 33 km 274.13° 286.03° - 1,603 ft / 489 m (AMSL)